Time;durP1;ratioP1;P1;durP2;ratioP2;P2;SDS_P1;SDS_P2;PMS_P1;PMS_P2;Temp;Humidity;BMP_temperature;BMP_pressure;BME280_temperature;BME280_humidity;BME280_pressure;Samples;Min_cycle;Max_cycle;Signal;HPM_P1;HPM_P2
2021/12/02 00:02:01;;;;;;;7.72;3.17;;;4.60;99.90;;;;;;4390894;28;10000298;-80
2021/12/02 00:04:27;;;;;;;7.63;3.13;;;4.50;99.90;;;;;;5099707;28;20028;-80
2021/12/02 00:06:53;;;;;;;6.72;2.90;;;4.50;99.90;;;;;;5088447;28;20030;-80
2021/12/02 00:09:19;;;;;;;8.80;2.90;;;4.50;99.90;;;;;;5100440;28;20047;-80
2021/12/02 00:11:44;;;;;;;9.63;3.47;;;4.50;99.90;;;;;;5097938;28;20032;-80
2021/12/02 00:14:11;;;;;;;7.28;3.05;;;4.50;99.90;;;;;;5092495;28;20063;-80
2021/12/02 00:21:54;;;;;;;6.07;2.90;;;4.50;99.90;;;;;;5100290;28;20035;-80
2021/12/02 00:24:23;;;;;;;8.88;3.53;;;;;;;;;;5099328;28;20017;-79
2021/12/02 00:26:51;;;;;;;7.43;2.40;;;4.40;99.90;;;;;;5103087;28;20089;-80
2021/12/02 00:29:19;;;;;;;8.20;2.70;;;4.40;99.90;;;;;;5100750;28;20035;-80
2021/12/02 00:31:46;;;;;;;10.80;2.72;;;;;;;;;;5106224;28;20478;-80
2021/12/02 00:34:13;;;;;;;10.63;2.92;;;;;;;;;;5098433;28;20046;-81
2021/12/02 00:36:39;;;;;;;7.43;1.95;;;;;;;;;;5109655;28;20473;-80
2021/12/02 00:39:07;;;;;;;14.27;2.40;;;;;;;;;;5091752;28;20346;-80
2021/12/02 00:41:33;;;;;;;9.35;1.60;;;;;;;;;;5103740;28;20048;-80
2021/12/02 00:43:59;;;;;;;13.75;1.98;;;;;;;;;;5098336;28;20052;-80
2021/12/02 00:46:27;;;;;;;6.30;1.63;;;;;;;;;;5104856;28;20035;-80
2021/12/02 00:48:53;;;;;;;10.07;1.83;;;;;;;;;;5110202;28;20110;-81
2021/12/02 00:51:20;;;;;;;13.55;2.08;;;;;;;;;;5094166;28;20469;-81
2021/12/02 00:53:52;;;;;;;7.63;1.85;;;;;;;;;;5090680;28;20032;-81
2021/12/02 00:56:18;;;;;;;8.90;2.28;;;;;;;;;;5102414;27;20499;-80
2021/12/02 00:58:48;;;;;;;13.38;2.65;;;;;;;;;;5097313;28;20027;-80
2021/12/02 01:01:15;;;;;;;7.72;2.33;;;;;;;;;;5099208;28;20020;-81
2021/12/02 01:03:41;;;;;;;6.68;1.88;;;;;;;;;;5099453;28;20024;-80
2021/12/02 01:06:07;;;;;;;9.70;1.77;;;;;;;;;;5098788;28;20024;-80
2021/12/02 01:08:34;;;;;;;7.82;2.30;;;;;;;;;;5101978;28;20034;-80
2021/12/02 01:11:00;;;;;;;6.13;2.00;;;;;;;;;;5107027;28;20019;-81
2021/12/02 01:13:26;;;;;;;10.73;2.05;;;;;;;;;;5100047;28;20040;-81
2021/12/02 01:15:52;;;;;;;8.27;1.70;;;;;;;;;;5101100;28;20048;-80
2021/12/02 01:18:18;;;;;;;8.85;1.85;;;;;;;;;;5094187;28;20024;-80
2021/12/02 01:20:47;;;;;;;8.65;1.80;;;;;;;;;;5102478;28;20016;-81
2021/12/02 01:23:14;;;;;;;5.47;1.45;;;;;;;;;;5100397;28;20092;-81
2021/12/02 01:25:41;;;;;;;7.75;1.40;;;;;;;;;;5106444;27;20220;-81
2021/12/02 01:28:07;;;;;;;6.43;1.83;;;;;;;;;;5102754;28;20028;-81
2021/12/02 01:30:33;;;;;;;7.60;1.60;;;;;;;;;;5099788;28;20552;-81
2021/12/02 01:33:01;;;;;;;9.50;1.70;;;;;;;;;;5091253;28;20113;-81
2021/12/02 01:35:27;;;;;;;4.57;1.60;;;;;;;;;;5086519;28;20052;-81
2021/12/02 01:37:53;;;;;;;8.43;1.50;;;;;;;;;;5073514;28;20035;-81
2021/12/02 01:40:20;;;;;;;14.70;1.80;;;;;;;;;;5084825;28;20052;-81
2021/12/02 01:42:47;;;;;;;8.90;1.73;;;;;;;;;;5077742;28;20112;-81
2021/12/02 01:45:16;;;;;;;8.95;1.60;;;;;;;;;;5074912;28;21016;-80
2021/12/02 01:47:47;;;;;;;7.95;1.73;;;;;;;;;;5084980;28;20028;-81
2021/12/02 01:50:15;;;;;;;8.63;1.58;;;;;;;;;;5076082;28;20031;-80
2021/12/02 01:52:43;;;;;;;6.25;1.85;;;;;;;;;;5081196;28;20063;-81
2021/12/02 01:55:14;;;;;;;5.10;1.50;;;;;;;;;;5087426;28;20508;-81
2021/12/02 01:57:41;;;;;;;7.40;1.90;;;;;;;;;;5086925;28;20032;-81
2021/12/02 02:00:14;;;;;;;7.47;1.90;;;;;;;;;;5075384;28;20097;-81
2021/12/02 02:02:40;;;;;;;5.72;2.13;;;;;;;;;;5080560;28;20036;-81
2021/12/02 02:05:11;;;;;;;10.52;2.20;;;;;;;;;;5070140;28;20056;-81
2021/12/02 02:07:41;;;;;;;5.70;1.80;;;;;;;;;;5081760;28;20020;-81
2021/12/02 02:10:08;;;;;;;5.55;1.77;;;;;;;;;;5074594;28;20047;-81
2021/12/02 02:12:34;;;;;;;10.07;2.13;;;;;;;;;;5079575;28;20020;-81
2021/12/02 02:15:00;;;;;;;5.55;1.50;;;4.30;99.90;;;;;;5081450;28;20419;-81
2021/12/02 02:17:29;;;;;;;8.13;2.17;;;4.20;99.90;;;;;;5084188;28;20074;-82
2021/12/02 02:19:55;;;;;;;4.40;1.02;;;4.10;99.90;;;;;;5077729;28;20036;-81
2021/12/02 02:22:24;;;;;;;7.40;1.30;;;4.00;99.90;;;;;;5082145;28;20020;-81
2021/12/02 02:24:52;;;;;;;4.35;1.25;;;3.90;99.90;;;;;;5073822;28;20066;-81
2021/12/02 02:27:17;;;;;;;4.43;1.15;;;4.00;99.90;;;;;;5074312;28;20569;-81
2021/12/02 02:29:43;;;;;;;3.67;1.00;;;3.90;99.90;;;;;;5074431;28;20112;-81
2021/12/02 02:32:09;;;;;;;6.15;1.17;;;3.90;99.90;;;;;;5087172;28;20047;-81
2021/12/02 02:34:35;;;;;;;2.45;0.95;;;3.80;99.90;;;;;;5106323;27;20043;-81
2021/12/02 02:37:04;;;;;;;6.25;1.20;;;3.90;99.90;;;;;;5094921;28;20039;-81
2021/12/02 02:39:30;;;;;;;5.43;1.33;;;3.80;99.90;;;;;;5100222;27;20443;-82
2021/12/02 02:41:59;;;;;;;3.53;1.10;;;3.80;99.90;;;;;;5101144;27;20039;-81
2021/12/02 02:44:27;;;;;;;3.88;1.17;;;3.80;99.90;;;;;;5101180;28;20023;-81
2021/12/02 02:46:53;;;;;;;7.00;1.38;;;3.70;99.90;;;;;;5105060;27;20150;-82
2021/12/02 02:49:18;;;;;;;6.93;1.15;;;3.70;99.90;;;;;;5095954;28;20150;-82
2021/12/02 02:51:44;;;;;;;5.78;1.17;;;3.70;99.90;;;;;;5095576;27;20040;-82
2021/12/02 02:54:12;;;;;;;5.10;1.38;;;3.70;99.90;;;;;;5094854;28;20058;-82
2021/12/02 02:56:50;;;;;;;3.85;1.23;;;3.70;99.90;;;;;;5099464;27;21760;-82
2021/12/02 02:59:33;;;;;;;3.33;1.00;;;3.70;99.90;;;;;;5100341;27;20036;-82
2021/12/02 03:02:07;;;;;;;2.33;0.83;;;3.70;99.90;;;;;;5092953;28;20330;-81
2021/12/02 03:07:20;;;;;;;5.57;1.20;;;3.60;99.90;;;;;;5095291;27;20024;-82
2021/12/02 03:09:53;;;;;;;7.03;1.42;;;3.60;99.90;;;;;;5098595;28;20090;-82
2021/12/02 03:12:30;;;;;;;4.68;1.48;;;3.50;99.90;;;;;;5088276;28;20046;-82
2021/12/02 03:17:26;;;;;;;4.80;1.10;;;3.40;99.90;;;;;;5094088;28;20020;-82
2021/12/02 03:19:52;;;;;;;4.85;1.10;;;3.40;99.90;;;;;;5090824;28;20080;-82
2021/12/02 03:22:18;;;;;;;8.05;1.50;;;3.40;99.90;;;;;;5093768;28;20099;-81
2021/12/02 03:24:43;;;;;;;9.73;1.50;;;3.30;99.90;;;;;;5087958;28;20171;-82
2021/12/02 03:27:09;;;;;;;6.93;2.05;;;3.30;99.90;;;;;;5091832;28;20032;-82
2021/12/02 03:29:35;;;;;;;6.82;1.73;;;3.30;99.90;;;;;;5095991;28;20024;-82
2021/12/02 03:32:01;;;;;;;4.72;1.00;;;3.30;99.90;;;;;;5094776;28;20040;-82
2021/12/02 03:34:27;;;;;;;5.15;1.30;;;3.30;99.90;;;;;;5091766;28;20634;-82
2021/12/02 03:36:53;;;;;;;5.63;1.25;;;3.30;99.90;;;;;;5091453;28;20024;-82
2021/12/02 03:39:19;;;;;;;5.10;1.48;;;3.30;99.90;;;;;;5092914;28;20478;-82
2021/12/02 03:41:45;;;;;;;4.65;1.45;;;3.30;99.90;;;;;;5092663;28;20107;-82
2021/12/02 03:44:11;;;;;;;9.07;1.60;;;3.30;99.90;;;;;;5091011;28;20474;-82
2021/12/02 03:46:39;;;;;;;9.70;2.38;;;3.30;99.90;;;;;;5093204;28;20028;-81
2021/12/02 03:49:06;;;;;;;7.55;2.10;;;3.30;99.90;;;;;;5091228;28;20047;-82
2021/12/02 03:51:32;;;;;;;7.10;1.70;;;3.30;99.90;;;;;;5091480;28;20027;-82
2021/12/02 03:53:58;;;;;;;6.75;1.98;;;3.30;99.90;;;;;;5088040;28;20499;-82
2021/12/02 03:56:24;;;;;;;10.20;1.90;;;3.30;99.90;;;;;;5097003;28;20115;-82
2021/12/02 03:58:51;;;;;;;7.63;1.77;;;3.20;99.90;;;;;;5099249;28;20118;-82
2021/12/02 04:01:18;;;;;;;10.25;1.85;;;3.20;99.90;;;;;;5100924;28;20028;-82
2021/12/02 04:03:44;;;;;;;6.18;2.13;;;3.20;99.90;;;;;;5100744;28;20060;-82
2021/12/02 04:06:11;;;;;;;4.97;1.70;;;3.20;99.90;;;;;;5107804;28;20028;-82
2021/12/02 04:11:18;;;;;;;5.05;1.90;;;3.20;99.90;;;;;;5104519;28;20032;-82
2021/12/02 04:14:09;;;;;;;11.82;2.97;;;3.20;99.90;;;;;;5099166;27;20405;-82
2021/12/02 04:16:34;;;;;;;9.10;2.25;;;3.20;99.90;;;;;;5098961;28;20036;-82
2021/12/02 04:19:00;;;;;;;6.65;2.00;;;3.20;99.90;;;;;;5100097;27;20027;-82
2021/12/02 04:21:26;;;;;;;8.05;2.47;;;3.20;99.90;;;;;;5097240;28;20020;-82
2021/12/02 04:23:51;;;;;;;10.77;2.67;;;3.20;99.90;;;;;;5095303;28;20106;-81
2021/12/02 04:26:18;;;;;;;7.25;2.42;;;3.20;99.90;;;;;;5093533;28;20048;-82
2021/12/02 04:28:43;;;;;;;11.05;2.42;;;3.20;99.90;;;;;;5091742;28;20035;-82
2021/12/02 04:31:09;;;;;;;9.43;2.20;;;3.30;99.90;;;;;;5100004;28;20024;-82
2021/12/02 04:33:35;;;;;;;8.15;2.20;;;3.30;99.90;;;;;;5097481;27;20085;-82
2021/12/02 04:36:00;;;;;;;9.30;2.10;;;3.30;99.90;;;;;;5104566;27;20032;-82
2021/12/02 04:38:28;;;;;;;10.05;2.15;;;3.30;99.90;;;;;;5103052;27;20117;-82
2021/12/02 04:40:55;;;;;;;6.45;1.88;;;3.30;99.90;;;;;;5097318;28;20719;-82
2021/12/02 04:43:21;;;;;;;9.25;2.22;;;3.20;99.90;;;;;;5096564;27;20078;-82
2021/12/02 04:45:47;;;;;;;10.43;2.08;;;3.20;99.90;;;;;;5102472;28;20112;-82
2021/12/02 04:48:14;;;;;;;6.60;1.83;;;3.20;99.90;;;;;;5097180;27;20285;-82
2021/12/02 04:50:40;;;;;;;11.20;1.98;;;3.20;99.90;;;;;;5097451;27;20074;-82
2021/12/02 04:53:05;;;;;;;6.70;1.63;;;3.20;99.90;;;;;;5098236;28;20470;-82
2021/12/02 04:55:31;;;;;;;10.52;2.10;;;3.20;99.90;;;;;;5100031;28;20035;-82
2021/12/02 04:57:57;;;;;;;8.45;2.47;;;3.20;99.90;;;;;;5097284;28;20023;-82
2021/12/02 05:00:23;;;;;;;9.65;2.03;;;3.20;99.90;;;;;;5098259;27;20016;-82
2021/12/02 05:02:49;;;;;;;7.68;2.15;;;3.20;99.90;;;;;;5099395;27;20078;-82
2021/12/02 05:05:15;;;;;;;8.55;3.20;;;3.20;99.90;;;;;;5097899;28;20579;-82
2021/12/02 05:07:41;;;;;;;13.82;3.90;;;3.20;99.90;;;;;;5111621;28;20043;-81
2021/12/02 05:10:07;;;;;;;12.05;2.67;;;3.10;99.90;;;;;;5110320;28;20051;-82
2021/12/02 05:12:33;;;;;;;8.27;1.98;;;3.10;99.90;;;;;;5117802;27;20028;-82
2021/12/02 05:15:00;;;;;;;9.70;2.05;;;3.10;99.90;;;;;;5107210;28;20035;-82
2021/12/02 05:17:26;;;;;;;6.22;1.95;;;3.10;99.90;;;;;;5104007;28;20031;-82
2021/12/02 05:19:51;;;;;;;7.97;2.30;;;3.20;99.90;;;;;;5109154;28;20449;-82
2021/12/02 05:22:17;;;;;;;10.82;2.53;;;3.10;99.90;;;;;;5104236;28;20063;-82
2021/12/02 05:24:42;;;;;;;6.47;2.42;;;3.10;99.90;;;;;;5104379;28;20430;-81
2021/12/02 05:27:09;;;;;;;6.32;2.55;;;3.20;99.90;;;;;;5099286;28;20658;-81
2021/12/02 05:29:34;;;;;;;13.35;4.72;;;3.20;99.90;;;;;;5095257;28;20052;-82
2021/12/02 05:32:00;;;;;;;11.52;4.78;;;3.20;99.90;;;;;;5099200;27;20052;-81
2021/12/02 05:34:26;;;;;;;11.73;3.60;;;3.20;99.90;;;;;;5104044;28;20024;-82
2021/12/02 05:36:53;;;;;;;14.80;4.82;;;3.20;99.90;;;;;;5102121;28;20661;-82
2021/12/02 05:39:19;;;;;;;15.07;5.63;;;3.20;99.90;;;;;;5103544;28;20485;-82
2021/12/02 05:41:45;;;;;;;16.63;7.68;;;3.20;99.90;;;;;;5103712;28;20035;-81
2021/12/02 05:44:10;;;;;;;16.73;4.78;;;3.30;99.90;;;;;;5095459;28;20032;-81
2021/12/02 05:46:36;;;;;;;16.05;5.65;;;3.30;99.90;;;;;;5103422;28;20501;-81
2021/12/02 05:49:02;;;;;;;23.10;6.35;;;3.30;99.90;;;;;;5088577;28;20032;-81
2021/12/02 05:51:28;;;;;;;18.63;5.65;;;3.30;99.90;;;;;;5081883;28;20063;-81
2021/12/02 05:53:53;;;;;;;15.30;4.82;;;3.20;99.90;;;;;;5103735;28;20508;-81
2021/12/02 05:56:19;;;;;;;12.30;3.17;;;3.20;99.90;;;;;;5096021;28;20140;-81
2021/12/02 05:58:45;;;;;;;9.90;3.00;;;3.20;99.90;;;;;;5098430;28;20034;-81
2021/12/02 06:01:10;;;;;;;7.25;2.47;;;3.20;99.90;;;;;;5103089;28;20020;-81
2021/12/02 06:03:37;;;;;;;8.65;3.58;;;3.20;99.90;;;;;;5096199;28;20081;-80
2021/12/02 06:06:06;;;;;;;11.23;3.97;;;3.20;99.90;;;;;;5104171;28;20555;-81
2021/12/02 06:08:32;;;;;;;7.50;2.90;;;3.20;99.90;;;;;;5106186;28;20031;-82
2021/12/02 06:10:58;;;;;;;12.55;3.17;;;3.20;99.90;;;;;;5095332;28;20473;-80
2021/12/02 06:13:25;;;;;;;10.48;3.10;;;3.20;99.90;;;;;;5100934;28;20035;-80
2021/12/02 06:15:51;;;;;;;9.88;2.92;;;3.20;99.90;;;;;;5106981;28;20496;-79
2021/12/02 06:18:17;;;;;;;12.50;3.08;;;3.20;99.90;;;;;;5091688;28;20031;-79
2021/12/02 06:20:43;;;;;;;10.18;2.90;;;3.20;99.90;;;;;;5100445;28;20529;-78
2021/12/02 06:23:08;;;;;;;8.18;2.60;;;3.20;99.90;;;;;;5094016;28;20088;-78
2021/12/02 06:28:03;;;;;;;11.70;3.03;;;3.20;99.90;;;;;;5103255;27;20074;-79
2021/12/02 06:30:29;;;;;;;10.95;3.92;;;3.10;99.90;;;;;;5099305;28;20039;-80
2021/12/02 06:32:55;;;;;;;10.52;3.45;;;3.20;99.90;;;;;;5101864;28;20449;-79
2021/12/02 06:35:21;;;;;;;13.07;3.42;;;3.10;99.90;;;;;;5105244;28;20062;-79
2021/12/02 06:37:47;;;;;;;8.13;3.17;;;3.10;99.90;;;;;;5098785;28;20123;-78
2021/12/02 06:40:14;;;;;;;8.43;3.17;;;3.10;99.90;;;;;;5100271;27;20128;-78
2021/12/02 06:42:41;;;;;;;8.23;2.42;;;3.00;99.90;;;;;;5094825;27;20028;-78
2021/12/02 06:45:09;;;;;;;8.90;2.88;;;3.00;99.90;;;;;;5106135;28;20052;-78
2021/12/02 06:47:38;;;;;;;8.13;2.72;;;3.00;99.90;;;;;;5103981;28;20035;-78
2021/12/02 06:50:05;;;;;;;7.72;2.65;;;2.90;99.90;;;;;;5102471;28;20064;-78
2021/12/02 06:52:32;;;;;;;14.20;4.57;;;2.90;99.90;;;;;;5106967;28;20172;-79
2021/12/02 06:54:58;;;;;;;15.77;4.50;;;2.90;99.90;;;;;;5100083;28;20043;-78
2021/12/02 06:57:23;;;;;;;10.60;4.20;;;2.90;99.90;;;;;;5102223;28;20032;-78
2021/12/02 06:59:49;;;;;;;13.40;4.85;;;2.80;99.90;;;;;;5101036;28;20582;-78
2021/12/02 07:02:15;;;;;;;16.73;5.38;;;2.80;99.90;;;;;;5096260;28;20032;-78
2021/12/02 07:04:41;;;;;;;12.05;4.72;;;2.80;99.90;;;;;;5102595;28;20142;-78
2021/12/02 07:07:06;;;;;;;12.68;4.38;;;2.70;99.90;;;;;;5101812;28;20078;-77
2021/12/02 07:09:32;;;;;;;7.93;3.53;;;2.70;99.90;;;;;;5097568;28;20081;-78
2021/12/02 07:11:58;;;;;;;8.20;3.67;;;2.70;99.90;;;;;;5092661;28;20474;-77
2021/12/02 07:14:25;;;;;;;8.60;3.35;;;2.80;99.90;;;;;;5096168;28;20469;-78
2021/12/02 07:16:51;;;;;;;6.90;2.92;;;2.70;99.90;;;;;;5090983;28;20493;-78
2021/12/02 07:19:17;;;;;;;9.70;4.20;;;2.80;99.90;;;;;;5103995;28;20508;-78
2021/12/02 07:21:45;;;;;;;6.82;3.80;;;2.80;99.90;;;;;;5100635;28;20505;-77
2021/12/02 07:24:14;;;;;;;6.53;3.80;;;2.80;99.90;;;;;;5098325;28;20031;-78
2021/12/02 07:26:41;;;;;;;7.60;4.13;;;2.80;99.90;;;;;;5097181;28;20032;-78
2021/12/02 07:29:18;;;;;;;7.32;4.43;;;2.80;99.90;;;;;;5089897;28;20045;-78
2021/12/02 07:31:43;;;;;;;13.48;7.68;;;2.80;99.90;;;;;;5102668;28;20052;-78
2021/12/02 07:34:09;;;;;;;15.18;10.10;;;2.80;99.90;;;;;;5101997;28;20036;-79
2021/12/02 07:36:36;;;;;;;16.75;11.13;;;2.90;99.90;;;;;;5098869;28;20031;-79
2021/12/02 07:39:09;;;;;;;12.48;6.55;;;2.90;99.90;;;;;;5097018;28;20035;-78
2021/12/02 07:41:38;;;;;;;11.75;6.43;;;2.90;99.90;;;;;;5102477;28;20023;-79
2021/12/02 07:44:05;;;;;;;9.73;5.53;;;2.90;99.90;;;;;;5103136;28;20035;-79
2021/12/02 07:46:31;;;;;;;13.52;6.38;;;2.90;99.90;;;;;;5102050;28;20776;-79
2021/12/02 07:48:57;;;;;;;10.18;5.63;;;2.80;99.90;;;;;;5092523;28;20108;-79
2021/12/02 07:51:29;;;;;;;9.82;5.43;;;2.80;99.90;;;;;;5100116;28;20028;-79
2021/12/02 07:53:58;;;;;;;8.13;3.88;;;2.80;99.90;;;;;;5102928;27;20047;-79
2021/12/02 07:56:24;;;;;;;7.60;4.20;;;2.90;99.90;;;;;;5100087;28;20024;-80
2021/12/02 07:58:50;;;;;;;10.40;3.05;;;2.80;99.90;;;;;;5097589;28;20548;-80
2021/12/02 08:01:18;;;;;;;7.78;2.95;;;2.80;99.90;;;;;;5100907;28;20032;-80
2021/12/02 08:03:45;;;;;;;6.85;3.33;;;2.80;99.90;;;;;;5105705;28;20145;-79
2021/12/02 08:06:15;;;;;;;13.82;4.50;;;2.90;99.90;;;;;;5099283;28;20031;-80
2021/12/02 08:08:42;;;;;;;9.88;4.78;;;2.80;99.90;;;;;;5104563;28;20039;-80
2021/12/02 08:11:09;;;;;;;14.57;5.55;;;2.80;99.90;;;;;;5105603;28;20058;-81
2021/12/02 08:13:35;;;;;;;12.30;6.07;;;2.80;99.90;;;;;;5095196;28;20504;-80
2021/12/02 08:16:02;;;;;;;16.25;7.13;;;2.80;99.90;;;;;;5099672;28;20036;-79
2021/12/02 08:18:28;;;;;;;15.85;7.38;;;2.90;99.90;;;;;;5100713;28;20030;-81
2021/12/02 08:20:55;;;;;;;14.63;6.93;;;2.90;99.90;;;;;;5102999;28;20473;-79
2021/12/02 08:23:21;;;;;;;11.65;6.13;;;2.90;99.90;;;;;;5096255;28;20069;-80
2021/12/02 08:25:48;;;;;;;17.10;6.55;;;3.00;99.90;;;;;;5103054;28;20034;-79
2021/12/02 08:28:14;;;;;;;13.52;7.45;;;2.90;99.90;;;;;;5107083;28;20169;-78
2021/12/02 08:30:40;;;;;;;15.65;7.00;;;3.00;99.90;;;;;;5101424;28;20089;-78
2021/12/02 08:33:07;;;;;;;16.60;7.70;;;3.00;99.90;;;;;;5100316;28;20048;-78
2021/12/02 08:35:34;;;;;;;14.85;7.18;;;3.00;99.90;;;;;;5106525;28;20035;-77
2021/12/02 08:38:05;;;;;;;15.82;7.25;;;3.10;99.90;;;;;;5104762;28;20027;-78
2021/12/02 08:40:36;;;;;;;14.27;7.45;;;3.10;99.90;;;;;;5100789;28;20030;-78
2021/12/02 08:43:04;;;;;;;12.90;6.82;;;3.10;99.90;;;;;;5104581;28;20508;-78
2021/12/02 08:45:30;;;;;;;13.70;6.18;;;3.10;99.90;;;;;;5104081;28;20858;-79
2021/12/02 08:47:57;;;;;;;11.95;5.90;;;3.10;99.90;;;;;;5099230;28;20567;-78
2021/12/02 08:50:24;;;;;;;12.27;5.50;;;3.10;99.90;;;;;;5104178;28;20027;-78
2021/12/02 08:52:50;;;;;;;15.02;6.90;;;3.20;99.90;;;;;;5104717;28;20031;-79
2021/12/02 08:55:18;;;;;;;12.75;6.55;;;3.20;99.90;;;;;;5105585;28;20065;-79
2021/12/02 08:57:44;;;;;;;11.45;5.85;;;3.30;99.90;;;;;;5106537;28;20046;-78
2021/12/02 09:00:12;;;;;;;12.00;6.60;;;3.30;99.90;;;;;;5106654;28;20031;-78
2021/12/02 09:02:38;;;;;;;16.80;8.13;;;3.30;99.90;;;;;;5102299;28;20032;-78
2021/12/02 09:05:05;;;;;;;15.80;6.88;;;3.40;99.90;;;;;;5102275;28;20043;-78
2021/12/02 09:07:31;;;;;;;9.60;5.63;;;3.40;99.90;;;;;;5103356;28;20036;-79
2021/12/02 09:09:57;;;;;;;14.32;8.20;;;3.40;99.90;;;;;;5103051;28;20035;-79
2021/12/02 09:12:23;;;;;;;18.35;8.90;;;3.40;99.90;;;;;;5099740;28;20024;-79
2021/12/02 09:14:50;;;;;;;13.10;7.43;;;3.40;99.90;;;;;;5102386;28;20102;-78
2021/12/02 09:17:15;;;;;;;19.00;9.77;;;3.40;99.90;;;;;;5104866;28;20047;-78
2021/12/02 09:19:41;;;;;;;17.80;9.43;;;3.50;99.90;;;;;;5101246;28;20033;-78
2021/12/02 09:22:07;;;;;;;13.57;6.28;;;3.50;99.90;;;;;;5102528;28;20148;-78
2021/12/02 09:24:32;;;;;;;10.10;6.18;;;3.50;99.90;;;;;;5104612;28;20048;-78
2021/12/02 09:26:58;;;;;;;13.95;6.40;;;3.50;99.90;;;;;;5103055;28;20058;-78
2021/12/02 09:29:24;;;;;;;10.90;5.28;;;3.50;99.90;;;;;;5101436;28;20394;-78
2021/12/02 09:31:51;;;;;;;10.38;5.22;;;3.50;99.90;;;;;;5098126;28;20501;-78
2021/12/02 09:34:17;;;;;;;9.18;5.10;;;3.50;99.90;;;;;;5101086;28;20060;-79
2021/12/02 09:36:43;;;;;;;12.57;5.32;;;3.60;99.90;;;;;;5100564;28;20032;-79
2021/12/02 09:39:10;;;;;;;10.05;4.35;;;3.60;99.90;;;;;;5101681;28;20024;-79
2021/12/02 09:41:37;;;;;;;8.27;4.72;;;3.60;99.90;;;;;;5105643;28;20023;-78
2021/12/02 09:44:04;;;;;;;8.95;4.03;;;3.70;99.90;;;;;;5100762;28;20032;-78
2021/12/02 09:46:30;;;;;;;9.77;5.00;;;3.80;99.90;;;;;;5103681;28;20436;-78
2021/12/02 09:48:57;;;;;;;9.35;5.28;;;3.90;99.90;;;;;;5103160;28;20032;-78
2021/12/02 09:51:25;;;;;;;9.98;4.93;;;4.00;99.90;;;;;;5099085;28;20036;-77
2021/12/02 09:54:57;;;;;;;11.43;5.20;;;4.00;99.90;;;;;;5102994;28;20040;-78
2021/12/02 09:56:49;;;;;;;10.63;5.25;;;4.10;99.90;;;;;;5084633;28;20043;-77
2021/12/02 10:00:17;;;;;;;10.13;5.10;;;4.10;99.90;;;;;;5097341;28;20469;-77
2021/12/02 10:02:14;;;;;;;13.57;7.90;;;4.10;99.90;;;;;;4372176;28;10001494;-86
2021/12/02 10:04:46;;;;;;;8.77;5.25;;;4.10;99.90;;;;;;5070471;28;20438;-90
2021/12/02 10:07:45;;;;;;;8.77;4.60;;;4.10;99.90;;;;;;5077614;28;20529;-88
2021/12/02 10:10:15;;;;;;;11.95;6.47;;;4.10;99.90;;;;;;5078143;28;20067;-79
2021/12/02 10:13:03;;;;;;;9.05;5.47;;;4.10;99.90;;;;;;5071007;28;20040;-83
2021/12/02 10:15:30;;;;;;;9.88;5.15;;;4.10;99.90;;;;;;5075434;28;20074;-89
2021/12/02 10:17:58;;;;;;;13.85;6.95;;;4.20;99.90;;;;;;5081795;28;20032;-88
2021/12/02 10:20:34;;;;;;;10.90;6.13;;;4.10;99.90;;;;;;5064510;28;20470;-81
2021/12/02 10:23:17;;;;;;;9.23;5.60;;;4.10;99.90;;;;;;5064589;28;20083;-80
2021/12/02 10:25:48;;;;;;;9.38;5.90;;;4.20;99.90;;;;;;5064625;28;20089;-83
2021/12/02 10:28:16;;;;;;;9.15;4.97;;;4.20;99.90;;;;;;5072680;28;20043;-83
2021/12/02 10:30:45;;;;;;;8.25;4.50;;;4.20;99.90;;;;;;5071261;28;20020;-84
2021/12/02 10:33:12;;;;;;;8.27;5.15;;;4.30;99.90;;;;;;5069461;28;20489;-83
2021/12/02 10:35:46;;;;;;;6.75;4.78;;;4.30;99.90;;;;;;5076632;28;20060;-82
2021/12/02 10:38:38;;;;;;;7.00;4.45;;;4.40;99.90;;;;;;5078436;28;20024;-84
2021/12/02 10:41:10;;;;;;;5.45;3.92;;;4.40;99.90;;;;;;5076423;28;20104;-83
2021/12/02 10:44:08;;;;;;;6.68;3.80;;;4.30;99.90;;;;;;5084313;28;20024;-87
2021/12/02 10:46:36;;;;;;;6.82;3.55;;;4.30;99.90;;;;;;5079677;28;20444;-81
2021/12/02 10:49:04;;;;;;;7.18;3.45;;;4.40;99.90;;;;;;5077055;28;20038;-82
2021/12/02 10:51:38;;;;;;;6.15;2.75;;;4.40;99.90;;;;;;5075161;28;20032;-79
2021/12/02 10:54:14;;;;;;;5.40;2.28;;;4.50;99.90;;;;;;5068103;28;20070;-81
2021/12/02 10:56:46;;;;;;;2.53;2.03;;;4.50;99.90;;;;;;5068440;28;20054;-82
2021/12/02 10:59:57;;;;;;;6.30;2.40;;;4.50;99.90;;;;;;5079433;28;20028;-78
2021/12/02 11:02:35;;;;;;;4.57;1.70;;;4.40;99.90;;;;;;5045516;28;20059;-86
2021/12/02 11:05:20;;;;;;;4.72;2.25;;;4.40;99.90;;;;;;5082494;28;20256;-86
2021/12/02 11:08:06;;;;;;;5.07;2.05;;;4.30;99.90;;;;;;5085223;28;20028;-85
2021/12/02 11:10:38;;;;;;;5.28;1.90;;;4.30;99.90;;;;;;5080754;28;20142;-82
2021/12/02 11:13:05;;;;;;;2.45;1.63;;;4.30;99.90;;;;;;5073520;28;20111;-82
2021/12/02 11:15:33;;;;;;;4.22;2.15;;;4.30;99.90;;;;;;5081931;28;20082;-83
2021/12/02 11:18:02;;;;;;;3.20;1.83;;;4.30;99.90;;;;;;5088960;28;20056;-87
2021/12/02 11:20:39;;;;;;;4.18;1.70;;;4.30;99.90;;;;;;5066712;28;20032;-80
2021/12/02 11:23:29;;;;;;;4.63;1.92;;;4.30;99.90;;;;;;5083819;28;20524;-82
2021/12/02 11:26:08;;;;;;;4.00;1.98;;;4.30;99.90;;;;;;5079726;28;20477;-83
2021/12/02 11:28:37;;;;;;;5.63;2.10;;;4.30;99.90;;;;;;5072466;28;20387;-86
2021/12/02 11:31:19;;;;;;;6.13;2.30;;;4.30;99.90;;;;;;5083218;28;20068;-82
2021/12/02 11:33:46;;;;;;;2.78;1.92;;;4.30;99.90;;;;;;5085492;28;20067;-82
2021/12/02 11:36:22;;;;;;;3.78;1.90;;;4.30;99.90;;;;;;5088189;28;20081;-85
2021/12/02 11:38:51;;;;;;;4.53;1.90;;;4.40;99.90;;;;;;5080807;28;20047;-89
2021/12/02 11:41:19;;;;;;;5.30;2.05;;;4.50;99.90;;;;;;5072124;28;20116;-88
2021/12/02 11:43:45;;;;;;;5.18;2.30;;;4.50;99.90;;;;;;5086574;28;20046;-83
2021/12/02 11:46:11;;;;;;;4.93;1.60;;;4.60;99.90;;;;;;5083052;28;20035;-88
2021/12/02 11:48:41;;;;;;;3.47;2.03;;;4.70;99.90;;;;;;5077259;28;20602;-85
2021/12/02 11:51:16;;;;;;;4.32;2.10;;;4.70;99.90;;;;;;5070146;28;20104;-84
2021/12/02 11:53:42;;;;;;;3.95;2.00;;;4.80;99.90;;;;;;5073547;28;20032;-85
2021/12/02 11:56:20;;;;;;;3.13;2.10;;;4.80;99.90;;;;;;5077524;28;20029;-84
2021/12/02 11:58:46;;;;;;;4.50;2.30;;;4.80;99.90;;;;;;5072725;28;20452;-83
2021/12/02 12:01:21;;;;;;;9.43;2.90;;;4.80;99.90;;;;;;5078900;28;20028;-83
2021/12/02 12:03:54;;;;;;;4.53;2.28;;;4.70;99.90;;;;;;5073243;28;20039;-81
2021/12/02 12:06:24;;;;;;;;;;;4.70;99.90;;;;;;5078284;28;20032;-84
2021/12/02 12:08:51;;;;;;;6.07;2.88;;;4.60;99.90;;;;;;5076450;28;19955;-84
2021/12/02 12:11:24;;;;;;;3.22;2.53;;;4.60;99.90;;;;;;5071708;28;20025;-83
2021/12/02 12:14:03;;;;;;;;;;;4.70;99.90;;;;;;5088081;28;20036;-83
2021/12/02 12:16:36;;;;;;;5.05;2.30;;;4.60;99.90;;;;;;5082599;28;19919;-82
2021/12/02 12:19:28;;;;;;;2.58;1.83;;;4.60;99.90;;;;;;5081310;28;20020;-80
2021/12/02 12:22:02;;;;;;;4.18;2.75;;;4.70;99.90;;;;;;5077417;28;20024;-84
2021/12/02 12:24:47;;;;;;;4.45;2.78;;;4.70;99.90;;;;;;5066964;28;20610;-84
2021/12/02 12:27:17;;;;;;;4.22;2.33;;;4.70;99.90;;;;;;5072355;28;20054;-81
2021/12/02 12:29:47;;;;;;;5.40;2.90;;;4.60;99.90;;;;;;5098263;28;20042;-82
2021/12/02 12:32:30;;;;;;;4.97;2.67;;;4.60;99.90;;;;;;5088933;28;20082;-83
2021/12/02 12:35:03;;;;;;;5.88;3.58;;;4.60;99.90;;;;;;5099096;28;20032;-84
2021/12/02 12:37:48;;;;;;;;;;;4.60;99.90;;;;;;5095384;28;20035;-87
2021/12/02 12:40:30;;;;;;;9.20;5.60;;;4.50;99.90;;;;;;5104399;28;20580;-88
2021/12/02 12:43:02;;;;;;;4.55;2.33;;;4.30;99.90;;;;;;5110550;28;20051;-83
2021/12/02 12:45:38;;;;;;;6.17;2.87;;;4.20;99.90;;;;;;5115882;28;20553;-82
2021/12/02 12:48:06;;;;;;;11.70;6.35;;;4.10;99.90;;;;;;5106536;28;20028;-85
2021/12/02 12:50:36;;;;;;;9.45;4.95;;;4.10;99.90;;;;;;5106449;28;20023;-89
2021/12/02 12:53:05;;;;;;;10.40;6.45;;;4.10;99.90;;;;;;5096839;28;20027;-79
2021/12/02 12:55:33;;;;;;;10.48;7.15;;;4.00;99.90;;;;;;5102215;28;20213;-86
2021/12/02 12:58:07;;;;;;;7.10;3.67;;;4.00;99.90;;;;;;5102294;28;20114;-81
2021/12/02 13:00:35;;;;;;;5.90;3.33;;;3.90;99.90;;;;;;5104450;28;20720;-85
2021/12/02 13:03:08;;;;;;;5.13;3.10;;;3.90;99.90;;;;;;5102181;28;20043;-86
2021/12/02 13:06:02;;;;;;;5.55;2.97;;;3.90;99.90;;;;;;5107301;28;20030;-81
2021/12/02 13:08:38;;;;;;;6.80;2.97;;;3.90;99.90;;;;;;5097373;28;20038;-78
2021/12/02 13:11:19;;;;;;;5.90;2.60;;;3.90;99.90;;;;;;5100688;28;20238;-78
2021/12/02 13:13:47;;;;;;;3.47;2.15;;;3.80;99.90;;;;;;5099006;28;20035;-80
2021/12/02 13:16:19;;;;;;;5.03;2.60;;;3.90;99.90;;;;;;5100718;28;20301;-78
2021/12/02 13:18:52;;;;;;;3.70;2.50;;;3.90;99.90;;;;;;5094719;28;20515;-80
2021/12/02 13:21:33;;;;;;;5.78;3.30;;;4.00;99.90;;;;;;5095357;28;20027;-80
2021/12/02 13:24:06;;;;;;;5.50;2.53;;;4.10;99.90;;;;;;5104755;28;20028;-78
2021/12/02 13:26:38;;;;;;;3.15;2.30;;;4.20;99.90;;;;;;5099647;28;20033;-76
2021/12/02 13:29:12;;;;;;;3.08;2.05;;;4.40;99.90;;;;;;5087605;28;20036;-80
2021/12/02 13:31:40;;;;;;;3.60;2.45;;;4.40;99.90;;;;;;5092105;28;20054;-81
2021/12/02 13:34:10;;;;;;;5.47;2.90;;;4.40;99.90;;;;;;5099144;28;20111;-83